Time;durP1;ratioP1;P1;durP2;ratioP2;P2;SDS_P1;SDS_P2;PMS_P1;PMS_P2;Temp;Humidity;BMP_temperature;BMP_pressure;BME280_temperature;BME280_humidity;BME280_pressure;Samples;Min_cycle;Max_cycle;Signal;HPM_P1;HPM_P2
2021/01/23 00:02:16;;;;;;;21.80;17.02;;;;;;;;;;5094370;28;20610;-63
2021/01/23 00:04:42;;;;;;;21.52;15.80;;;;;;;;;;5098666;28;20201;-62
2021/01/23 00:07:09;;;;;;;17.58;13.70;;;;;;;;;;5095546;28;20228;-62
2021/01/23 00:09:36;;;;;;;20.40;14.25;;;;;;;;;;5094760;28;20225;-63
2021/01/23 00:12:03;;;;;;;21.67;16.90;;;;;;;;;;5094983;28;20204;-62
2021/01/23 00:14:30;;;;;;;20.98;16.92;;;;;;;;;;5094678;28;20197;-61
2021/01/23 00:16:56;;;;;;;22.27;16.27;;;;;;;;;;5097035;28;20224;-62
2021/01/23 00:19:24;;;;;;;17.27;14.63;;;;;;;;;;5095437;28;20204;-62
2021/01/23 00:21:51;;;;;;;17.90;15.02;;;;;;;;;;5095001;28;20249;-62
2021/01/23 00:24:18;;;;;;;24.15;16.70;;;;;;;;;;5098577;28;20200;-61
2021/01/23 00:26:44;;;;;;;17.98;14.20;;;;;;;;;;5097746;28;20204;-62
2021/01/23 00:29:12;;;;;;;18.30;14.30;;;;;;;;;;5098105;28;20235;-62
2021/01/23 00:31:39;;;;;;;17.40;13.18;;;;;;;;;;5098664;28;20200;-62
2021/01/23 00:34:06;;;;;;;18.88;15.57;;;;;;;;;;5101074;28;20695;-63
2021/01/23 00:36:33;;;;;;;19.05;14.43;;;;;;;;;;5104544;28;20226;-62
2021/01/23 00:39:00;;;;;;;22.73;15.13;;;;;;;;;;5101577;28;20203;-62
2021/01/23 00:41:27;;;;;;;20.83;14.80;;;;;;;;;;5097782;28;20208;-63
2021/01/23 00:43:54;;;;;;;19.55;14.48;;;;;;;;;;5098111;28;20692;-62
2021/01/23 00:46:21;;;;;;;21.20;15.60;;;;;;;;;;5104003;28;20212;-62
2021/01/23 00:48:48;;;;;;;21.15;15.38;;;;;;;;;;5113781;28;20250;-64
2021/01/23 00:51:15;;;;;;;21.20;14.30;;;;;;;;;;5114110;28;20204;-64
2021/01/23 00:53:44;;;;;;;19.60;14.73;;;;;;;;;;5113309;28;20200;-63
2021/01/23 00:56:11;;;;;;;19.42;14.68;;;;;;;;;;5108542;28;20638;-62
2021/01/23 00:58:38;;;;;;;18.27;14.70;;;;;;;;;;5098000;28;20216;-61
2021/01/23 01:01:04;;;;;;;21.02;15.60;;;;;;;;;;5097787;28;20660;-61
2021/01/23 01:03:31;;;;;;;17.20;13.35;;;;;;;;;;5097333;28;20216;-61
2021/01/23 01:05:58;;;;;;;21.10;14.82;;;;;;;;;;5096799;28;20205;-61
2021/01/23 01:08:25;;;;;;;18.65;14.80;;;;;;;;;;5098631;28;20593;-62
2021/01/23 01:10:53;;;;;;;17.20;14.65;;;;;;;;;;5098670;28;20263;-62
2021/01/23 01:13:20;;;;;;;19.63;14.25;;;;;;;;;;5097607;28;20667;-62
2021/01/23 01:15:46;;;;;;;21.42;14.65;;;;;;;;;;5097827;28;20205;-62
2021/01/23 01:18:13;;;;;;;17.90;13.95;;;;;;;;;;5098688;28;20646;-62
2021/01/23 01:20:40;;;;;;;22.02;15.77;;;;;;;;;;5098999;28;20200;-62
2021/01/23 01:23:07;;;;;;;18.45;14.48;;;;;;;;;;5097731;28;20660;-62
2021/01/23 01:25:33;;;;;;;20.17;14.43;;;;;;;;;;5097380;28;20208;-62
2021/01/23 01:28:01;;;;;;;16.73;13.02;;;;;;;;;;5096832;28;20217;-62
2021/01/23 01:30:28;;;;;;;21.13;14.93;;;;;;;;;;5096972;28;20204;-62
2021/01/23 01:32:54;;;;;;;19.35;13.90;;;;;;;;;;5096410;28;20602;-61
2021/01/23 01:35:21;;;;;;;23.30;15.60;;;;;;;;;;5095744;28;20226;-61
2021/01/23 01:37:48;;;;;;;17.73;14.18;;;;;;;;;;5096884;28;20262;-62
2021/01/23 01:40:15;;;;;;;18.65;13.98;;;;;;;;;;5097437;28;20615;-63
2021/01/23 01:42:42;;;;;;;18.92;13.65;;;;;;;;;;5100690;28;20204;-62
2021/01/23 01:45:10;;;;;;;21.63;14.82;;;;;;;;;;5106443;28;20197;-62
2021/01/23 01:47:38;;;;;;;19.85;14.15;;;;;;;;;;5098127;28;20216;-62
2021/01/23 01:50:05;;;;;;;20.73;13.43;;;;;;;;;;5097126;28;20204;-61
2021/01/23 01:52:32;;;;;;;16.73;13.60;;;;;;;;;;5097360;28;20253;-62
2021/01/23 01:54:59;;;;;;;17.63;12.68;;;;;;;;;;5097215;28;20208;-62
2021/01/23 01:57:26;;;;;;;18.33;14.32;;;;;;;;;;5097564;28;20224;-62
2021/01/23 01:59:53;;;;;;;19.75;14.20;;;;;;;;;;5097628;28;20200;-61
2021/01/23 02:02:27;;;;;;;19.85;14.25;;;;;;;;;;5096493;28;20208;-62
2021/01/23 02:04:58;;;;;;;19.60;13.85;;;;;;;;;;5095970;28;20185;-62
2021/01/23 02:07:29;;;;;;;18.13;13.98;;;;;;;;;;5095294;28;20232;-62
2021/01/23 02:10:11;;;;;;;19.23;14.02;;;;;;;;;;5095824;28;20640;-62
2021/01/23 02:12:41;;;;;;;18.33;13.32;;;;;;;;;;5093648;28;20211;-62
2021/01/23 02:15:11;;;;;;;21.17;13.45;;;;;;;;;;5095846;28;20606;-62
2021/01/23 02:17:42;;;;;;;17.67;13.88;;;;;;;;;;5095439;28;20216;-62
2021/01/23 02:20:17;;;;;;;19.25;13.85;;;;;;;;;;5095647;28;20640;-61
2021/01/23 02:22:56;;;;;;;16.60;13.57;;;;;;;;;;5095759;28;20208;-62
2021/01/23 02:25:25;;;;;;;17.98;13.65;;;;;;;;;;5095701;28;20612;-61
2021/01/23 02:27:55;;;;;;;17.83;14.30;;;;;;;;;;5095287;28;20233;-62
2021/01/23 02:30:25;;;;;;;21.02;14.35;;;;;;;;;;5095920;28;20189;-62
2021/01/23 02:32:55;;;;;;;17.73;14.10;;;;;;;;;;5095271;28;20204;-62
2021/01/23 02:35:23;;;;;;;16.80;13.07;;;;;;;;;;5096045;28;20242;-61
2021/01/23 02:37:51;;;;;;;20.65;14.35;;;;;;;;;;5100293;28;20217;-63
2021/01/23 02:40:18;;;;;;;23.17;15.00;;;;;;;;;;5096523;28;20200;-62
2021/01/23 02:42:44;;;;;;;18.75;14.10;;;;;;;;;;5096385;28;20204;-63
2021/01/23 02:45:11;;;;;;;22.85;14.18;;;;;;;;;;5096874;28;20211;-62
2021/01/23 02:47:39;;;;;;;20.33;14.18;;;;;;;;;;5095830;28;20305;-62
2021/01/23 02:50:07;;;;;;;20.80;14.85;;;;;;;;;;5097814;28;20226;-62
2021/01/23 02:52:38;;;;;;;16.35;12.98;;;;;;;;;;5096122;28;20277;-62
2021/01/23 02:55:06;;;;;;;17.95;14.25;;;;;;;;;;5099448;28;20234;-62
2021/01/23 02:57:34;;;;;;;25.08;14.65;;;;;;;;;;5101299;28;20652;-62
2021/01/23 03:00:05;;;;;;;20.20;15.10;;;;;;;;;;5095200;28;20552;-62
2021/01/23 03:02:33;;;;;;;23.15;15.70;;;;;;;;;;5101014;28;20196;-61
2021/01/23 03:05:01;;;;;;;23.17;13.27;;;;;;;;;;5109480;28;20204;-61
2021/01/23 03:07:28;;;;;;;20.70;13.70;;;;;;;;;;5109652;28;20602;-62
2021/01/23 03:09:55;;;;;;;19.05;14.35;;;;;;;;;;5109643;28;20200;-62
2021/01/23 03:12:22;;;;;;;19.20;14.85;;;;;;;;;;5110016;28;20273;-61
2021/01/23 03:14:48;;;;;;;23.42;15.80;;;;;;;;;;5109590;28;20197;-62
2021/01/23 03:17:15;;;;;;;23.48;14.73;;;;;;;;;;5108912;28;20228;-61
2021/01/23 03:19:42;;;;;;;20.75;14.85;;;;;;;;;;5108204;28;20209;-62
2021/01/23 03:22:09;;;;;;;21.02;15.65;;;;;;;;;;5109102;28;20200;-62
2021/01/23 03:24:36;;;;;;;19.23;14.48;;;;;;;;;;5110641;28;20676;-62
2021/01/23 03:27:03;;;;;;;19.67;14.30;;;;;;;;;;5110828;28;20221;-62
2021/01/23 03:29:30;;;;;;;20.63;13.15;;;;;;;;;;5110532;28;20224;-61
2021/01/23 03:31:57;;;;;;;22.10;14.80;;;;;;;;;;5110372;28;20230;-62
2021/01/23 03:34:23;;;;;;;20.95;15.32;;;;;;;;;;5102876;28;20205;-62
2021/01/23 03:36:50;;;;;;;23.63;14.82;;;;;;;;;;5096304;28;20200;-62
2021/01/23 03:39:17;;;;;;;22.40;15.88;;;;;;;;;;5096025;28;20253;-62
2021/01/23 03:41:44;;;;;;;27.15;16.75;;;;;;;;;;5094308;28;20213;-63
2021/01/23 03:44:11;;;;;;;20.13;15.50;;;;;;;;;;5094742;28;20200;-62
2021/01/23 03:46:38;;;;;;;19.90;14.95;;;;;;;;;;5094401;28;20200;-62
2021/01/23 03:49:04;;;;;;;20.73;14.80;;;;;;;;;;5094719;28;20563;-62
2021/01/23 03:51:31;;;;;;;21.13;14.73;;;;;;;;;;5094112;28;20218;-62
2021/01/23 03:53:58;;;;;;;23.05;15.13;;;;;;;;;;5094535;28;20226;-62
2021/01/23 03:56:25;;;;;;;21.30;15.23;;;;;;;;;;5095312;28;20200;-62
2021/01/23 03:58:52;;;;;;;22.00;14.60;;;;;;;;;;5094349;28;20631;-62
2021/01/23 04:01:19;;;;;;;20.67;15.65;;;;;;;;;;5097736;28;20196;-62
2021/01/23 04:03:46;;;;;;;19.17;15.55;;;;;;;;;;5096105;28;20208;-61
2021/01/23 04:07:38;;;;;;;19.92;15.57;;;;;;;;;;5113003;27;21109;-62
2021/01/23 04:10:05;;;;;;;26.00;15.20;;;;;;;;;;5112922;28;20195;-62
2021/01/23 04:12:32;;;;;;;27.30;16.10;;;;;;;;;;5112665;28;20222;-62
2021/01/23 04:14:58;;;;;;;20.08;15.52;;;;;;;;;;5112890;28;20199;-62
2021/01/23 04:17:25;;;;;;;18.70;15.07;;;;;;;;;;5115177;28;20216;-62
2021/01/23 04:19:52;;;;;;;20.83;15.38;;;;;;;;;;5118427;28;20206;-63
2021/01/23 04:22:19;;;;;;;24.73;16.55;;;;;;;;;;5120168;28;20199;-62
2021/01/23 04:24:46;;;;;;;23.00;15.85;;;;;;;;;;5119757;28;20204;-61
2021/01/23 04:27:13;;;;;;;26.45;16.25;;;;;;;;;;5119238;28;20588;-61
2021/01/23 04:29:40;;;;;;;21.60;15.52;;;;;;;;;;5119043;28;20207;-62
2021/01/23 04:32:07;;;;;;;21.25;15.95;;;;;;;;;;5113727;28;20206;-62
2021/01/23 04:34:33;;;;;;;24.55;17.70;;;;;;;;;;5111845;28;20668;-62
2021/01/23 04:37:00;;;;;;;24.23;17.27;;;;;;;;;;5112183;28;20230;-62
2021/01/23 04:39:27;;;;;;;26.73;16.75;;;;;;;;;;5115527;28;20211;-63
2021/01/23 04:41:54;;;;;;;21.40;16.85;;;;;;;;;;5118202;28;20261;-62
2021/01/23 04:44:21;;;;;;;24.00;17.13;;;;;;;;;;5117914;28;20208;-62
2021/01/23 04:46:48;;;;;;;24.05;17.42;;;;;;;;;;5115855;28;20215;-61
2021/01/23 04:49:15;;;;;;;23.30;17.52;;;;;;;;;;5120612;28;20199;-62
2021/01/23 04:51:41;;;;;;;24.88;17.65;;;;;;;;;;5119668;28;20200;-62
2021/01/23 04:54:08;;;;;;;28.20;17.67;;;;;;;;;;5119438;28;20199;-61
2021/01/23 04:56:35;;;;;;;23.52;16.23;;;;;;;;;;5119839;28;20207;-62
2021/01/23 04:59:03;;;;;;;25.83;16.25;;;;;;;;;;5120338;28;20663;-62
2021/01/23 05:01:29;;;;;;;21.45;15.98;;;;;;;;;;5117950;28;20207;-62
2021/01/23 05:03:56;;;;;;;23.80;16.73;;;;;;;;;;5113067;28;20577;-62
2021/01/23 05:06:23;;;;;;;20.75;16.65;;;;;;;;;;5114042;28;20224;-62
2021/01/23 05:08:50;;;;;;;27.40;16.48;;;;;;;;;;5111365;28;20227;-62
2021/01/23 05:11:17;;;;;;;24.08;16.60;;;;;;;;;;5111504;28;20200;-62
2021/01/23 05:13:45;;;;;;;23.45;17.02;;;;;;;;;;5115937;28;20207;-62
2021/01/23 05:16:25;;;;;;;24.30;17.48;;;;;;;;;;5114105;28;20196;-63
2021/01/23 05:18:56;;;;;;;19.73;16.25;;;;;;;;;;5098846;28;20220;-62
2021/01/23 05:21:23;;;;;;;24.83;16.65;;;;;;;;;;5099625;28;20207;-62
2021/01/23 05:24:02;;;;;;;24.05;16.13;;;;;;;;;;5099328;28;20200;-62
2021/01/23 05:26:28;;;;;;;27.50;16.77;;;;;;;;;;5099507;28;20618;-62
2021/01/23 05:29:05;;;;;;;21.52;16.80;;;;;;;;;;5097802;28;20269;-62
2021/01/23 05:31:32;;;;;;;24.02;16.88;;;;;;;;;;5097845;28;20192;-63
2021/01/23 05:33:59;;;;;;;28.13;18.73;;;;;;;;;;5097857;28;20285;-62
2021/01/23 05:36:26;;;;;;;26.77;18.00;;;;;;;;;;5097019;28;20200;-62
2021/01/23 05:38:53;;;;;;;32.58;17.80;;;;;;;;;;5096539;28;20220;-62
2021/01/23 05:41:19;;;;;;;26.73;16.65;;;;;;;;;;5096687;28;20204;-62
2021/01/23 05:43:47;;;;;;;26.77;17.90;;;;;;;;;;5096316;28;20196;-63
2021/01/23 05:46:14;;;;;;;29.63;17.58;;;;;;;;;;5095858;28;20216;-62
2021/01/23 05:48:42;;;;;;;27.95;17.95;;;;;;;;;;5095964;28;20220;-63
2021/01/23 05:51:09;;;;;;;24.02;17.38;;;;;;;;;;5095701;28;20664;-62
2021/01/23 05:53:36;;;;;;;24.75;17.65;;;;;;;;;;5095943;28;20262;-62
2021/01/23 05:56:03;;;;;;;25.85;17.80;;;;;;;;;;5095896;28;20196;-62
2021/01/23 05:58:30;;;;;;;23.33;18.25;;;;;;;;;;5095775;28;20228;-63
2021/01/23 06:00:58;;;;;;;26.73;17.27;;;;;;;;;;5095837;28;20224;-62
2021/01/23 06:03:28;;;;;;;25.83;18.55;;;;;;;;;;5095659;28;20257;-62
2021/01/23 06:05:56;;;;;;;22.75;16.40;;;;;;;;;;5095362;28;20266;-62
2021/01/23 06:08:42;;;;;;;27.02;17.80;;;;;;;;;;5095605;28;20220;-62
2021/01/23 06:11:23;;;;;;;31.02;17.58;;;;;;;;;;5095574;28;20257;-61
2021/01/23 06:13:51;;;;;;;26.77;17.92;;;;;;;;;;5095031;28;20204;-62
2021/01/23 06:16:36;;;;;;;27.83;17.10;;;;;;;;;;5095562;28;20623;-62
2021/01/23 06:19:24;;;;;;;24.58;16.85;;;;;;;;;;5095252;28;20197;-63
2021/01/23 06:21:52;;;;;;;24.35;16.60;;;;;;;;;;5095240;28;20211;-62
2021/01/23 06:24:19;;;;;;;24.42;16.42;;;;;;;;;;5095115;28;20203;-62
2021/01/23 06:26:57;;;;;;;27.63;18.30;;;;;;;;;;5094785;28;20219;-62
2021/01/23 06:29:31;;;;;;;29.15;17.40;;;;;;;;;;5094189;28;20187;-62
2021/01/23 06:31:58;;;;;;;25.35;17.05;;;;;;;;;;5095230;28;20188;-63
2021/01/23 06:34:26;;;;;;;23.80;17.30;;;;;;;;;;5095498;28;20196;-61
2021/01/23 06:37:11;;;;;;;29.35;17.77;;;;;;;;;;5101557;28;20201;-63
2021/01/23 06:39:53;;;;;;;25.77;18.85;;;;;;;;;;5109639;28;20200;-62
2021/01/23 06:42:20;;;;;;;24.80;17.08;;;;;;;;;;5095771;28;20204;-62
2021/01/23 06:44:47;;;;;;;21.80;16.75;;;;;;;;;;5098511;28;20229;-62
2021/01/23 06:47:14;;;;;;;25.70;17.67;;;;;;;;;;5097694;28;20235;-62
2021/01/23 06:49:41;;;;;;;24.48;17.25;;;;;;;;;;5097100;28;20200;-61
2021/01/23 06:52:08;;;;;;;26.60;17.40;;;;;;;;;;5096508;28;20197;-62
2021/01/23 06:54:35;;;;;;;23.58;18.00;;;;;;;;;;5096372;28;20227;-62
2021/01/23 06:57:02;;;;;;;29.08;17.98;;;;;;;;;;5095315;28;20220;-62
2021/01/23 06:59:31;;;;;;;24.10;17.10;;;;;;;;;;5095505;28;20205;-61
2021/01/23 07:01:58;;;;;;;25.27;18.40;;;;;;;;;;5096057;28;20249;-62
2021/01/23 07:04:26;;;;;;;22.35;16.20;;;;;;;;;;5094884;28;20200;-60
2021/01/23 07:06:53;;;;;;;26.48;17.77;;;;;;;;;;5095168;28;20270;-63
2021/01/23 07:09:20;;;;;;;22.98;15.68;;;;;;;;;;5094577;28;20824;-62
2021/01/23 07:11:47;;;;;;;22.25;16.48;;;;;;;;;;5095257;28;20200;-63
2021/01/23 07:14:14;;;;;;;20.60;15.32;;;;;;;;;;5094475;28;20200;-62
2021/01/23 07:16:52;;;;;;;20.25;15.07;;;;;;;;;;5094508;28;20204;-61
2021/01/23 07:19:19;;;;;;;22.10;16.02;;;;;;;;;;5094598;28;20279;-61
2021/01/23 07:21:46;;;;;;;30.20;17.05;;;;;;;;;;5095324;28;20197;-62
2021/01/23 07:24:13;;;;;;;20.52;15.90;;;;;;;;;;5097997;28;20408;-62
2021/01/23 07:26:40;;;;;;;25.35;16.45;;;;;;;;;;5097655;28;20224;-62
2021/01/23 07:29:09;;;;;;;22.25;15.80;;;;;;;;;;5098300;28;20204;-62
2021/01/23 07:31:36;;;;;;;23.70;16.50;;;;;;;;;;5095730;28;20200;-61
2021/01/23 07:34:10;;;;;;;22.63;16.70;;;;;;;;;;5097832;28;20204;-62
2021/01/23 07:36:38;;;;;;;25.38;16.40;;;;;;;;;;5096559;28;20188;-63
2021/01/23 07:39:06;;;;;;;20.90;16.85;;;;;;;;;;5104261;28;20201;-62
2021/01/23 07:41:33;;;;;;;23.25;15.20;;;;;;;;;;5107945;28;20204;-63
2021/01/23 07:44:01;;;;;;;23.90;15.27;;;;;;;;;;5106817;28;20200;-61
2021/01/23 07:46:37;;;;;;;22.98;16.02;;;;;;;;;;5097132;28;20227;-64
2021/01/23 07:49:05;;;;;;;21.15;15.35;;;;;;;;;;5095637;28;20188;-63
2021/01/23 07:51:32;;;;;;;27.73;17.25;;;;;;;;;;5099000;28;20200;-64
2021/01/23 07:54:06;;;;;;;20.45;16.23;;;;;;;;;;5095146;28;20207;-62
2021/01/23 07:56:33;;;;;;;22.50;16.80;;;;;;;;;;5093970;28;20664;-65
2021/01/23 07:58:59;;;;;;;21.98;16.40;;;;;;;;;;5094509;28;20224;-65
2021/01/23 08:01:26;;;;;;;23.25;16.50;;;;;;;;;;5094171;28;20207;-64
2021/01/23 08:03:53;;;;;;;22.55;16.00;;;;;;;;;;5094173;28;20200;-64
2021/01/23 08:06:22;;;;;;;23.48;16.52;;;;;;;;;;5095371;28;20220;-63
2021/01/23 08:08:49;;;;;;;24.40;16.60;;;;;;;;;;5110521;28;20592;-63
2021/01/23 08:11:35;;;;;;;25.50;16.00;;;;;;;;;;5101985;28;20203;-63
2021/01/23 08:14:12;;;;;;;21.85;16.88;;;;;;;;;;5096426;28;20291;-62
2021/01/23 08:16:51;;;;;;;23.02;16.75;;;;;;;;;;5096390;28;20245;-61
2021/01/23 08:19:18;;;;;;;22.10;16.88;;;;;;;;;;5094164;28;20229;-61
2021/01/23 08:22:04;;;;;;;24.15;17.85;;;;;;;;;;5095030;28;20331;-62
2021/01/23 08:24:31;;;;;;;21.90;16.55;;;;;;;;;;5097070;28;20665;-61
2021/01/23 08:27:01;;;;;;;22.67;15.98;;;;;;;;;;5096765;28;20753;-63
2021/01/23 08:29:28;;;;;;;22.75;15.45;;;;;;;;;;5094678;28;20208;-62
2021/01/23 08:32:01;;;;;;;25.00;16.70;;;;;;;;;;5094280;28;20570;-61
2021/01/23 08:34:28;;;;;;;23.73;16.70;;;;;;;;;;5094471;28;20208;-62
2021/01/23 08:36:55;;;;;;;27.40;17.35;;;;;;;;;;5094265;28;20227;-62
2021/01/23 08:39:23;;;;;;;20.58;15.23;;;;;;;;;;5094241;28;20208;-62
2021/01/23 08:41:49;;;;;;;23.30;16.52;;;;;;;;;;5093699;28;20211;-62
2021/01/23 08:44:16;;;;;;;20.88;16.80;;;;;;;;;;5093575;28;20209;-62
2021/01/23 08:46:43;;;;;;;22.85;14.77;;;;;;;;;;5093402;28;20223;-61
2021/01/23 08:49:10;;;;;;;19.70;15.23;;;;;;;;;;5093888;28;20334;-62
2021/01/23 08:51:37;;;;;;;20.35;15.55;;;;;;;;;;5093519;28;20197;-62
2021/01/23 08:54:04;;;;;;;24.85;16.63;;;;;;;;;;5096803;28;20733;-62
2021/01/23 08:56:32;;;;;;;23.00;14.65;;;;;;;;;;5097146;28;20253;-62
2021/01/23 08:58:58;;;;;;;24.83;15.82;;;;;;;;;;5097534;28;20270;-62
2021/01/23 09:01:25;;;;;;;24.67;15.35;;;;;;;;;;5099115;28;20205;-62
2021/01/23 09:03:52;;;;;;;21.55;15.60;;;;;;;;;;5102521;28;20200;-62
2021/01/23 09:06:19;;;;;;;17.73;14.25;;;;;;;;;;5098846;28;20224;-62
2021/01/23 09:08:45;;;;;;;21.35;14.57;;;;;;;;;;5098548;28;20227;-62
2021/01/23 09:11:12;;;;;;;24.38;15.60;;;;;;;;;;5098979;28;20200;-62
2021/01/23 09:13:40;;;;;;;18.13;14.65;;;;;;;;;;5099559;28;20211;-63
2021/01/23 09:16:07;;;;;;;22.75;14.98;;;;;;;;;;5100409;28;20235;-63
2021/01/23 09:18:35;;;;;;;23.52;15.00;;;;;;;;;;5098867;28;20227;-63
2021/01/23 09:21:02;;;;;;;17.38;13.60;;;;;;;;;;5098045;28;20196;-62
2021/01/23 09:23:32;;;;;;;18.98;13.75;;;;;;;;;;5098346;28;20200;-63
2021/01/23 09:26:02;;;;;;;20.38;14.10;;;;;;;;;;5099119;28;20207;-64
2021/01/23 09:28:29;;;;;;;26.98;15.15;;;;;;;;;;5097341;28;20707;-63
2021/01/23 09:30:56;;;;;;;20.05;14.48;;;;;;;;;;5097570;28;20250;-65
2021/01/23 09:33:23;;;;;;;17.95;12.65;;;;;;;;;;5098108;28;20200;-63
2021/01/23 09:35:53;;;;;;;19.10;13.73;;;;;;;;;;5099497;28;20541;-63
2021/01/23 09:38:20;;;;;;;21.30;14.32;;;;;;;;;;5101914;28;20228;-62
2021/01/23 09:40:47;;;;;;;20.77;12.85;;;;;;;;;;5101591;28;20212;-62
2021/01/23 09:43:16;;;;;;;28.38;16.00;;;;;;;;;;5097195;28;20209;-62
2021/01/23 09:45:42;;;;;;;21.20;13.30;;;;;;;;;;5096528;28;20574;-61
2021/01/23 09:48:11;;;;;;;17.98;12.68;;;;;;;;;;5096183;28;20638;-63
2021/01/23 09:50:37;;;;;;;19.13;13.85;;;;;;;;;;5096253;28;20196;-64
2021/01/23 09:53:04;;;;;;;17.05;13.43;;;;;;;;;;5096112;28;20319;-64
2021/01/23 09:55:31;;;;;;;18.48;14.15;;;;;;;;;;5096868;28;20253;-64
2021/01/23 09:57:58;;;;;;;18.90;13.25;;;;;;;;;;5096320;28;20632;-65
2021/01/23 10:00:24;;;;;;;18.20;12.82;;;;;;;;;;5097035;28;20564;-62
2021/01/23 10:02:51;;;;;;;18.73;14.07;;;;;;;;;;5096947;28;20703;-64
2021/01/23 10:05:21;;;;;;;18.05;13.20;;;;;;;;;;5097309;28;20200;-64
2021/01/23 10:07:48;;;;;;;20.60;13.88;;;;;;;;;;5096758;28;20223;-66
2021/01/23 10:10:15;;;;;;;19.83;13.82;;;;;;;;;;5096346;28;20737;-63
2021/01/23 10:12:44;;;;;;;19.90;14.65;;;;;;;;;;5097066;28;20212;-65
2021/01/23 10:15:11;;;;;;;17.08;13.52;;;;;;;;;;5096763;28;20680;-62
2021/01/23 10:17:38;;;;;;;20.38;13.02;;;;;;;;;;5096453;28;20220;-63
2021/01/23 10:20:05;;;;;;;16.00;12.82;;;;;;;;;;5096859;28;20211;-63
2021/01/23 10:22:33;;;;;;;17.73;13.10;;;;;;;;;;5100761;28;20196;-62
2021/01/23 10:25:03;;;;;;;15.93;11.90;;;;;;;;;;5098508;28;20613;-64
2021/01/23 10:27:30;;;;;;;19.02;12.93;;;;;;;;;;5098172;28;20227;-62
2021/01/23 10:29:56;;;;;;;17.27;11.88;;;;;;;;;;5097713;28;20250;-63
2021/01/23 10:32:23;;;;;;;15.05;12.82;;;;;;;;;;5096154;28;20570;-62
2021/01/23 10:34:52;;;;;;;14.93;11.57;;;;;;;;;;5095734;28;20725;-63
2021/01/23 10:37:18;;;;;;;15.90;12.20;;;;;;;;;;5074579;22;20230;-56
2021/01/23 10:39:46;;;;;;;19.10;13.50;;;;;;;;;;5034071;28;20202;-56
2021/01/23 10:42:13;;;;;;;13.60;11.07;;;;;;;;;;5033756;28;20214;-56
2021/01/23 10:44:40;;;;;;;16.35;11.48;;;;;;;;;;5034570;28;20206;-56
2021/01/23 10:47:07;;;;;;;15.45;11.52;;;;;;;;;;5033798;28;20265;-57
2021/01/23 10:49:34;;;;;;;15.18;10.77;;;;;;;;;;5034218;28;20206;-57
2021/01/23 10:52:01;;;;;;;13.65;10.85;;;;;;;;;;5034076;28;20202;-56
2021/01/23 10:54:27;;;;;;;13.02;10.23;;;;;;;;;;5034089;28;20209;-57
2021/01/23 10:56:55;;;;;;;12.65;10.10;;;;;;;;;;5033902;28;20349;-55
2021/01/23 10:59:22;;;;;;;15.20;10.30;;;;;;;;;;5034322;28;20206;-55
2021/01/23 11:01:48;;;;;;;11.43;9.88;;;;;;;;;;5034027;28;20256;-56
2021/01/23 11:04:15;;;;;;;14.30;10.95;;;;;;;;;;5033870;28;20202;-54
2021/01/23 11:06:43;;;;;;;15.32;10.68;;;;;;;;;;5033810;28;20234;-54
2021/01/23 11:09:10;;;;;;;13.13;10.27;;;;;;;;;;5033771;28;20630;-55
2021/01/23 11:11:36;;;;;;;13.43;11.13;;;;;;;;;;5033350;28;20213;-57
2021/01/23 11:14:04;;;;;;;15.23;9.77;;;;;;;;;;5033245;28;20209;-56
2021/01/23 11:16:31;;;;;;;14.73;10.68;;;;;;;;;;5032978;28;20214;-57
2021/01/23 11:18:59;;;;;;;12.75;10.55;;;;;;;;;;5033426;28;20202;-56
2021/01/23 11:21:26;;;;;;;13.77;11.05;;;;;;;;;;5033283;28;20749;-55
2021/01/23 11:23:53;;;;;;;15.07;9.60;;;;;;;;;;5032862;28;20210;-56
2021/01/23 11:26:20;;;;;;;13.63;11.15;;;;;;;;;;5033615;28;20218;-59
2021/01/23 11:28:46;;;;;;;11.80;10.15;;;;;;;;;;5033073;28;20671;-57
2021/01/23 11:31:14;;;;;;;13.07;10.25;;;;;;;;;;5033199;28;20202;-55
2021/01/23 11:33:41;;;;;;;15.32;9.85;;;;;;;;;;5033451;28;20549;-56
2021/01/23 11:36:08;;;;;;;12.05;9.48;;;;;;;;;;5032745;28;20272;-56
2021/01/23 11:38:35;;;;;;;11.25;8.85;;;;;;;;;;5032907;28;20190;-56
2021/01/23 11:41:01;;;;;;;10.27;8.55;;;;;;;;;;5033048;28;20736;-55
2021/01/23 11:43:28;;;;;;;11.50;9.18;;;;;;;;;;5032813;28;20679;-58
2021/01/23 11:45:55;;;;;;;12.80;8.35;;;;;;;;;;5033100;28;20205;-55
2021/01/23 11:48:23;;;;;;;10.20;8.05;;;;;;;;;;5033282;28;20198;-56
2021/01/23 11:50:49;;;;;;;10.65;8.75;;;;;;;;;;5033390;28;20617;-56
2021/01/23 11:53:16;;;;;;;11.73;8.77;;;;;;;;;;5033046;28;20198;-55
2021/01/23 11:55:44;;;;;;;9.63;7.88;;;;;;;;;;5032944;28;20206;-58
2021/01/23 11:58:11;;;;;;;10.50;7.50;;;;;;;;;;5032716;28;20198;-55
2021/01/23 12:00:38;;;;;;;16.60;9.10;;;;;;;;;;5032735;28;20203;-53
2021/01/23 12:03:05;;;;;;;10.40;8.63;;;;;;;;;;5032702;28;20206;-55
2021/01/23 12:05:33;;;;;;;10.57;7.90;;;;;;;;;;5032575;28;20198;-56
2021/01/23 12:08:00;;;;;;;12.73;9.25;;;;;;;;;;5032257;28;20229;-55
2021/01/23 12:10:27;;;;;;;9.77;8.00;;;;;;;;;;5032367;28;20297;-56
2021/01/23 12:12:55;;;;;;;12.25;8.13;;;;;;;;;;5032528;28;20206;-55
2021/01/23 12:15:22;;;;;;;9.10;7.93;;;;;;;;;;5032755;28;20267;-55
2021/01/23 12:17:49;;;;;;;8.98;7.65;;;;;;;;;;5032693;28;20254;-55
2021/01/23 12:20:16;;;;;;;9.85;8.70;;;;;;;;;;5032517;28;20202;-55
2021/01/23 12:22:45;;;;;;;9.00;7.50;;;;;;;;;;5032683;28;20206;-55
2021/01/23 12:25:12;;;;;;;13.18;8.95;;;;;;;;;;5032450;28;20202;-55
2021/01/23 12:27:39;;;;;;;10.48;7.95;;;;;;;;;;5033337;28;20264;-57
2021/01/23 12:30:07;;;;;;;9.02;7.82;;;;;;;;;;5036882;28;20225;-56
2021/01/23 12:32:33;;;;;;;12.60;8.52;;;;;;;;;;5036850;28;20206;-55
2021/01/23 12:35:00;;;;;;;8.02;7.20;;;;;;;;;;5036169;28;20202;-56
2021/01/23 12:37:28;;;;;;;10.20;7.10;;;;;;;;;;5035902;28;20244;-55
2021/01/23 12:39:56;;;;;;;8.25;6.90;;;;;;;;;;5035948;28;20202;-55
2021/01/23 12:42:23;;;;;;;10.25;7.30;;;;;;;;;;5036043;28;20653;-54
2021/01/23 12:44:49;;;;;;;11.65;8.32;;;;;;;;;;5036125;28;20256;-54
2021/01/23 12:47:16;;;;;;;9.85;6.72;;;;;;;;;;5036308;28;20280;-56
2021/01/23 12:49:43;;;;;;;8.52;7.07;;;;;;;;;;5036622;28;20276;-56
2021/01/23 12:52:10;;;;;;;13.27;7.22;;;;;;;;;;5036570;28;20572;-56
2021/01/23 12:54:36;;;;;;;12.18;7.78;;;;;;;;;;5036208;28;20667;-56
2021/01/23 12:57:04;;;;;;;8.38;7.35;;;;;;;;;;5036204;28;20840;-56
2021/01/23 12:59:31;;;;;;;11.05;7.80;;;;;;;;;;5036152;28;20260;-56
2021/01/23 13:01:58;;;;;;;8.48;7.38;;;;;;;;;;5036716;28;20203;-56
2021/01/23 13:04:25;;;;;;;11.38;7.70;;;;;;;;;;5037213;28;20213;-55
2021/01/23 13:06:51;;;;;;;8.25;7.45;;;;;;;;;;5035815;28;20306;-56
2021/01/23 13:09:18;;;;;;;7.72;6.93;;;;;;;;;;5035993;28;20312;-55
2021/01/23 13:11:45;;;;;;;9.38;7.53;;;;;;;;;;5036012;28;20205;-56
2021/01/23 13:14:12;;;;;;;8.90;7.13;;;;;;;;;;5035837;28;20199;-56
2021/01/23 13:16:40;;;;;;;9.10;7.60;;;;;;;;;;5035712;28;20273;-55
2021/01/23 13:19:09;;;;;;;10.20;7.57;;;;;;;;;;5036048;28;20255;-55
2021/01/23 13:21:35;;;;;;;10.55;7.70;;;;;;;;;;5036752;28;20217;-55
2021/01/23 13:24:02;;;;;;;9.18;8.25;;;;;;;;;;5035111;28;20225;-56
2021/01/23 13:26:29;;;;;;;8.15;7.35;;;;;;;;;;5035548;28;20229;-56
2021/01/23 13:28:56;;;;;;;9.63;7.70;;;;;;;;;;5035747;28;20207;-56
2021/01/23 13:31:24;;;;;;;9.63;7.95;;;;;;;;;;5035358;28;20202;-56
2021/01/23 13:33:53;;;;;;;15.43;8.48;;;;;;;;;;5035771;28;20280;-56
2021/01/23 13:36:20;;;;;;;10.30;8.48;;;;;;;;;;5035605;28;20234;-54
2021/01/23 13:38:46;;;;;;;8.45;7.40;;;;;;;;;;5034665;28;20183;-55
2021/01/23 13:41:13;;;;;;;10.20;6.95;;;;;;;;;;5035306;28;20222;-55
2021/01/23 13:43:40;;;;;;;9.63;7.60;;;;;;;;;;5034998;28;20697;-55
2021/01/23 13:46:07;;;;;;;10.63;7.38;;;;;;;;;;5034962;28;20234;-57
2021/01/23 13:48:34;;;;;;;10.85;7.57;;;;;;;;;;5035460;28;20260;-55
2021/01/23 13:51:01;;;;;;;13.10;7.30;;;;;;;;;;5035541;28;20199;-55
2021/01/23 13:53:28;;;;;;;8.60;7.65;;;;;;;;;;5035591;28;20233;-55
2021/01/23 13:55:54;;;;;;;10.82;8.88;;;;;;;;;;5034716;28;20670;-57
2021/01/23 13:58:23;;;;;;;8.40;7.55;;;;;;;;;;5034794;28;20252;-55
2021/01/23 14:00:51;;;;;;;10.43;8.50;;;;;;;;;;5034502;28;20203;-55
2021/01/23 14:03:18;;;;;;;8.95;7.85;;;;;;;;;;5034943;28;20206;-55
2021/01/23 14:05:45;;;;;;;11.55;9.75;;;;;;;;;;5034977;28;20199;-55
2021/01/23 14:08:12;;;;;;;12.00;9.02;;;;;;;;;;5034787;28;20610;-55
2021/01/23 14:10:39;;;;;;;12.60;9.32;;;;;;;;;;5034964;28;20209;-54
2021/01/23 14:13:06;;;;;;;10.70;9.45;;;;;;;;;;5034616;28;20312;-54
2021/01/23 14:15:32;;;;;;;10.90;9.23;;;;;;;;;;5034748;28;20205;-55
2021/01/23 14:17:59;;;;;;;11.20;10.00;;;;;;;;;;5034852;28;20586;-55
2021/01/23 14:20:26;;;;;;;12.70;10.05;;;;;;;;;;5035038;28;20210;-56
2021/01/23 14:22:54;;;;;;;12.05;9.52;;;;;;;;;;5034702;28;20207;-56
2021/01/23 14:25:21;;;;;;;9.98;8.93;;;;;;;;;;5034602;28;20203;-55
2021/01/23 14:27:48;;;;;;;12.63;9.60;;;;;;;;;;5034942;28;20312;-56